Time;durP1;ratioP1;P1;durP2;ratioP2;P2;SDS_P1;SDS_P2;PMS_P1;PMS_P2;Temp;Humidity;BMP_temperature;BMP_pressure;BME280_temperature;BME280_humidity;BME280_pressure;Samples;Min_cycle;Max_cycle;Signal;HPM_P1;HPM_P2
2022/10/31 00:01:01;;;;;;;3.72;0.30;;;2.00;99.90;;;;;;4752633;30;20074;-79
2022/10/31 00:03:29;;;;;;;0.75;0.20;;;2.00;99.90;;;;;;4754119;30;20067;-81
2022/10/31 00:05:56;;;;;;;0.32;0.30;;;1.90;99.90;;;;;;4756861;30;20048;-82
2022/10/31 00:08:23;;;;;;;1.75;0.90;;;1.90;99.90;;;;;;4754065;30;20430;-79
2022/10/31 00:10:52;;;;;;;2.60;0.47;;;1.90;99.90;;;;;;4752707;30;20059;-80
2022/10/31 00:13:19;;;;;;;0.90;0.20;;;1.90;99.90;;;;;;4754567;30;20059;-81
2022/10/31 00:15:46;;;;;;;0.73;0.30;;;1.90;99.90;;;;;;4757315;30;20052;-80
2022/10/31 00:18:13;;;;;;;0.77;0.30;;;1.90;99.90;;;;;;4753339;30;20049;-81
2022/10/31 00:20:41;;;;;;;0.47;0.25;;;1.90;99.90;;;;;;4766438;30;20155;-80
2022/10/31 00:23:10;;;;;;;1.58;0.30;;;1.90;99.90;;;;;;4768272;30;20052;-79
2022/10/31 00:25:39;;;;;;;0.38;0.22;;;1.90;99.90;;;;;;4761990;29;20071;-78
2022/10/31 00:28:12;;;;;;;1.33;0.17;;;1.90;99.90;;;;;;4752144;30;20618;-79
2022/10/31 00:30:39;;;;;;;2.15;0.50;;;1.90;99.90;;;;;;4753610;30;20056;-82
2022/10/31 00:33:07;;;;;;;2.25;0.45;;;1.90;99.90;;;;;;4752998;30;20050;-82
2022/10/31 00:35:34;;;;;;;1.65;0.20;;;1.90;99.90;;;;;;4751854;30;20510;-82
2022/10/31 00:38:01;;;;;;;0.65;0.40;;;1.90;99.90;;;;;;4753461;30;20064;-81
2022/10/31 00:40:28;;;;;;;2.25;0.20;;;1.90;99.90;;;;;;4752674;30;20526;-81
2022/10/31 00:42:55;;;;;;;0.30;0.30;;;1.80;99.90;;;;;;4762505;30;20079;-80
2022/10/31 00:45:24;;;;;;;2.53;0.22;;;1.90;99.90;;;;;;4768853;30;20052;-82
2022/10/31 00:47:51;;;;;;;0.22;0.15;;;1.80;99.90;;;;;;4769956;30;20071;-81
2022/10/31 00:50:19;;;;;;;0.40;0.30;;;1.80;99.90;;;;;;4769604;30;20382;-82
2022/10/31 00:52:46;;;;;;;1.75;0.10;;;1.80;99.90;;;;;;4776587;30;20142;-82
2022/10/31 00:55:13;;;;;;;2.78;0.30;;;1.80;99.90;;;;;;4769175;30;20065;-82
2022/10/31 00:57:41;;;;;;;1.67;0.40;;;1.80;99.90;;;;;;4798684;29;20078;-82
2022/10/31 01:00:09;;;;;;;0.55;0.30;;;1.80;99.90;;;;;;4768987;30;20059;-80
2022/10/31 01:02:38;;;;;;;4.75;0.50;;;1.80;99.90;;;;;;4784293;29;20062;-81
2022/10/31 01:05:06;;;;;;;0.22;0.22;;;1.80;99.90;;;;;;4788045;29;20056;-80
2022/10/31 01:07:37;;;;;;;0.80;0.38;;;1.70;99.90;;;;;;4769610;30;20135;-78
2022/10/31 01:10:05;;;;;;;1.40;0.17;;;1.70;99.90;;;;;;4767390;30;20533;-79
2022/10/31 01:12:37;;;;;;;0.52;0.20;;;1.70;99.90;;;;;;4752927;30;20500;-79
2022/10/31 01:15:06;;;;;;;2.53;0.30;;;1.70;99.90;;;;;;4767438;30;20052;-78
2022/10/31 01:17:33;;;;;;;0.20;0.20;;;1.70;99.90;;;;;;4768592;30;20533;-79
2022/10/31 01:20:02;;;;;;;0.98;0.20;;;1.70;99.90;;;;;;4762498;30;20059;-79
2022/10/31 01:22:31;;;;;;;1.75;0.22;;;1.70;99.90;;;;;;4785528;29;20052;-78
2022/10/31 01:25:01;;;;;;;2.35;0.25;;;1.70;99.90;;;;;;4767443;30;20052;-78
2022/10/31 01:27:31;;;;;;;2.47;0.30;;;1.70;99.90;;;;;;4792124;29;20064;-78
2022/10/31 01:29:58;;;;;;;0.40;0.30;;;1.70;99.90;;;;;;4790735;29;20162;-78
2022/10/31 01:32:25;;;;;;;1.00;0.40;;;1.60;99.90;;;;;;4770057;30;20056;-81
2022/10/31 01:34:53;;;;;;;2.97;0.30;;;1.70;99.90;;;;;;4762468;30;20121;-81
2022/10/31 01:37:21;;;;;;;0.40;0.22;;;1.70;99.90;;;;;;4756902;30;20659;-78
2022/10/31 01:39:49;;;;;;;1.92;0.45;;;1.70;99.90;;;;;;4751063;30;20055;-76
2022/10/31 01:42:20;;;;;;;0.47;0.20;;;1.60;99.90;;;;;;4777524;30;20113;-80
2022/10/31 01:44:59;;;;;;;2.78;0.32;;;1.60;99.90;;;;;;4751757;30;20431;-81
2022/10/31 01:47:38;;;;;;;4.18;0.38;;;1.60;99.90;;;;;;4755222;30;20048;-80
2022/10/31 01:50:12;;;;;;;1.95;0.30;;;1.60;99.90;;;;;;4799218;29;20410;-81
2022/10/31 01:52:43;;;;;;;0.70;0.20;;;1.60;99.90;;;;;;4770631;30;20056;-81
2022/10/31 01:55:16;;;;;;;1.98;0.30;;;1.60;99.90;;;;;;4759809;30;20048;-81
2022/10/31 01:57:49;;;;;;;2.20;0.32;;;1.60;99.90;;;;;;4788776;29;20155;-83
2022/10/31 02:00:20;;;;;;;4.55;0.40;;;1.60;99.90;;;;;;4760200;30;20056;-81
2022/10/31 02:02:49;;;;;;;0.40;0.20;;;1.60;99.90;;;;;;4765265;30;20556;-81
2022/10/31 02:05:20;;;;;;;3.58;0.50;;;1.60;99.90;;;;;;4783396;29;20052;-79
2022/10/31 02:07:56;;;;;;;0.60;0.52;;;1.60;99.90;;;;;;4758516;30;20060;-79
2022/10/31 02:10:30;;;;;;;0.65;0.30;;;1.60;99.90;;;;;;4765311;30;20056;-80
2022/10/31 02:13:00;;;;;;;0.93;0.32;;;1.60;99.90;;;;;;4781429;29;20135;-78
2022/10/31 02:15:30;;;;;;;0.85;0.30;;;1.60;99.90;;;;;;4769082;30;20048;-78
2022/10/31 02:17:58;;;;;;;5.03;0.40;;;1.50;99.90;;;;;;4764781;30;20415;-78
2022/10/31 02:20:33;;;;;;;2.95;0.22;;;1.60;99.90;;;;;;4766608;30;20048;-78
2022/10/31 02:23:54;;;;;;;2.50;0.35;;;1.50;99.90;;;;;;4755405;30;20052;-79
2022/10/31 02:26:53;;;;;;;2.33;0.35;;;1.50;99.90;;;;;;4729945;30;20152;-78
2022/10/31 02:30:02;;;;;;;2.97;0.30;;;1.50;99.90;;;;;;4693623;30;20526;-78
2022/10/31 02:32:53;;;;;;;2.25;0.35;;;1.50;99.90;;;;;;4780430;29;20063;-78
2022/10/31 02:35:35;;;;;;;1.52;0.30;;;1.50;99.90;;;;;;4779990;29;20496;-81
2022/10/31 02:38:13;;;;;;;5.07;0.30;;;1.50;99.90;;;;;;4751976;30;20430;-80
2022/10/31 02:40:53;;;;;;;1.77;0.30;;;1.40;99.90;;;;;;4756337;30;20048;-80
2022/10/31 02:43:38;;;;;;;1.92;0.65;;;1.50;99.90;;;;;;4790579;29;20056;-80
2022/10/31 02:46:12;;;;;;;0.88;0.47;;;1.40;99.90;;;;;;4797576;29;20109;-82
2022/10/31 02:48:43;;;;;;;0.63;0.30;;;1.40;99.90;;;;;;4773402;30;20052;-83
2022/10/31 02:51:13;;;;;;;1.40;0.40;;;1.40;99.90;;;;;;4784127;29;20536;-81
2022/10/31 02:53:40;;;;;;;1.85;0.40;;;1.40;99.90;;;;;;4773621;30;20055;-82
2022/10/31 02:56:13;;;;;;;2.20;0.73;;;1.30;99.90;;;;;;4780837;30;20048;-82
2022/10/31 02:58:46;;;;;;;1.08;0.35;;;1.30;99.90;;;;;;4776865;30;20109;-81
2022/10/31 03:01:37;;;;;;;4.00;0.57;;;1.30;99.90;;;;;;4783020;29;20132;-83
2022/10/31 03:04:27;;;;;;;1.23;0.20;;;1.30;99.90;;;;;;4765168;30;20062;-83
2022/10/31 03:07:04;;;;;;;2.17;0.40;;;1.30;99.90;;;;;;4746140;30;20582;-82
2022/10/31 03:09:40;;;;;;;1.05;0.63;;;1.30;99.90;;;;;;4763988;30;20059;-83
2022/10/31 03:12:12;;;;;;;0.50;0.40;;;1.30;99.90;;;;;;4768028;29;20143;-81
2022/10/31 03:14:44;;;;;;;3.17;0.88;;;1.30;99.90;;;;;;4778518;29;20136;-81
2022/10/31 03:17:18;;;;;;;0.75;0.40;;;1.30;99.90;;;;;;4763958;30;20056;-82
2022/10/31 03:19:50;;;;;;;0.73;0.57;;;1.30;99.90;;;;;;4781474;29;20056;-82
2022/10/31 03:22:20;;;;;;;1.75;0.30;;;1.30;99.90;;;;;;4768325;30;20101;-82
2022/10/31 03:24:50;;;;;;;3.85;0.30;;;1.30;99.90;;;;;;4761057;30;20054;-82
2022/10/31 03:27:23;;;;;;;2.05;0.50;;;1.20;99.90;;;;;;4783850;30;20056;-82
2022/10/31 03:29:53;;;;;;;4.28;0.55;;;1.20;99.90;;;;;;4753403;30;20059;-79
2022/10/31 03:32:24;;;;;;;2.25;0.35;;;1.30;99.90;;;;;;4780725;29;20407;-82
2022/10/31 03:34:57;;;;;;;5.82;0.35;;;1.20;99.90;;;;;;4782037;29;20059;-80
2022/10/31 03:37:28;;;;;;;2.00;0.70;;;1.20;99.90;;;;;;4796493;29;20123;-80
2022/10/31 03:39:58;;;;;;;4.47;1.00;;;1.20;99.90;;;;;;4784735;29;20430;-82
2022/10/31 03:42:30;;;;;;;2.95;0.50;;;1.20;99.90;;;;;;4765565;30;20102;-81
2022/10/31 03:45:01;;;;;;;3.90;0.50;;;1.20;99.90;;;;;;4752325;30;20070;-80
2022/10/31 03:47:31;;;;;;;1.60;0.32;;;1.20;99.90;;;;;;4752435;30;20411;-83
2022/10/31 03:50:01;;;;;;;0.80;0.40;;;1.20;99.90;;;;;;4781051;29;20146;-80
2022/10/31 03:52:34;;;;;;;4.32;0.47;;;1.20;99.90;;;;;;4780905;29;20052;-81
2022/10/31 03:55:09;;;;;;;3.03;0.50;;;1.20;99.90;;;;;;4786096;29;20056;-79
2022/10/31 03:57:41;;;;;;;3.95;1.13;;;1.20;99.90;;;;;;4784798;29;20055;-81
2022/10/31 04:00:11;;;;;;;5.57;0.88;;;1.10;99.90;;;;;;4774898;30;20309;-83
2022/10/31 04:02:50;;;;;;;1.75;0.40;;;1.10;99.90;;;;;;4779185;29;20059;-81
2022/10/31 04:05:22;;;;;;;3.83;0.60;;;1.10;99.90;;;;;;4779671;29;20600;-82
2022/10/31 04:07:54;;;;;;;1.50;0.25;;;1.10;99.90;;;;;;4766208;30;20052;-79
2022/10/31 04:10:23;;;;;;;2.97;0.60;;;1.10;99.90;;;;;;4766098;30;20518;-79
2022/10/31 04:12:55;;;;;;;3.42;0.63;;;1.10;99.90;;;;;;4749892;30;20067;-80
2022/10/31 04:15:27;;;;;;;2.08;0.50;;;1.10;99.90;;;;;;4768137;30;20060;-80
2022/10/31 04:17:58;;;;;;;9.07;0.60;;;1.10;99.90;;;;;;4773976;30;20070;-78
2022/10/31 04:20:35;;;;;;;2.08;0.40;;;1.00;99.90;;;;;;4783840;29;20053;-79
2022/10/31 04:23:04;;;;;;;3.58;0.70;;;1.00;99.90;;;;;;4759023;30;20052;-80
2022/10/31 04:25:32;;;;;;;1.73;0.40;;;1.00;99.90;;;;;;4751175;30;20063;-79
2022/10/31 04:28:00;;;;;;;2.65;0.50;;;1.00;99.90;;;;;;4763254;30;20105;-79
2022/10/31 04:30:27;;;;;;;2.63;0.45;;;1.00;99.90;;;;;;4765404;30;20180;-81
2022/10/31 04:32:55;;;;;;;1.73;0.50;;;1.00;99.90;;;;;;4746451;30;20433;-80
2022/10/31 04:35:23;;;;;;;2.08;0.45;;;1.00;99.90;;;;;;4771255;30;20043;-79
2022/10/31 04:37:51;;;;;;;14.75;0.80;;;1.00;99.90;;;;;;4779875;30;20113;-82
2022/10/31 04:40:19;;;;;;;2.60;0.63;;;1.00;99.90;;;;;;4765860;30;20047;-84
2022/10/31 04:42:49;;;;;;;2.65;0.75;;;0.90;99.90;;;;;;4770096;30;20537;-82
2022/10/31 04:45:18;;;;;;;2.38;0.65;;;0.90;99.90;;;;;;4772013;29;20060;-83
2022/10/31 04:47:45;;;;;;;4.78;0.60;;;0.90;99.90;;;;;;4769456;30;20120;-83
2022/10/31 04:50:12;;;;;;;0.73;0.60;;;0.90;99.90;;;;;;4770326;30;20064;-83
2022/10/31 04:52:42;;;;;;;6.85;0.90;;;0.90;99.90;;;;;;4770151;30;20058;-83
2022/10/31 04:55:19;;;;;;;1.42;0.55;;;0.80;99.90;;;;;;4804370;29;20077;-83
2022/10/31 04:58:02;;;;;;;4.68;1.17;;;0.80;99.90;;;;;;4800433;29;20055;-84
2022/10/31 05:00:31;;;;;;;13.13;1.27;;;0.80;99.90;;;;;;4779084;30;20055;-84
2022/10/31 05:02:59;;;;;;;7.07;0.95;;;0.80;99.90;;;;;;4769777;30;20107;-84
2022/10/31 05:05:30;;;;;;;3.72;1.08;;;0.80;99.90;;;;;;4762292;30;20064;-86
2022/10/31 05:07:59;;;;;;;5.47;1.30;;;0.80;99.90;;;;;;4786750;30;20050;-83
2022/10/31 05:10:31;;;;;;;4.85;1.10;;;0.80;99.90;;;;;;4769712;30;20052;-82
2022/10/31 05:13:02;;;;;;;7.00;1.00;;;0.80;99.90;;;;;;4787355;29;20166;-81
2022/10/31 05:15:47;;;;;;;3.75;1.38;;;0.80;99.90;;;;;;4751893;30;20213;-80
2022/10/31 05:18:33;;;;;;;6.68;1.17;;;0.80;99.90;;;;;;4752354;30;20056;-80
2022/10/31 05:21:26;;;;;;;6.00;1.65;;;0.80;99.90;;;;;;4749268;30;20067;-78
2022/10/31 05:23:59;;;;;;;3.78;0.98;;;0.80;99.90;;;;;;4785745;29;20364;-83
2022/10/31 05:26:29;;;;;;;5.30;1.13;;;0.90;99.90;;;;;;4792773;29;20119;-83
2022/10/31 05:28:56;;;;;;;7.60;1.20;;;0.90;99.90;;;;;;4758621;30;20052;-82
2022/10/31 05:31:24;;;;;;;5.18;1.05;;;0.90;99.90;;;;;;4764354;30;20051;-82
2022/10/31 05:33:53;;;;;;;2.58;1.73;;;0.90;99.90;;;;;;4797799;29;20058;-83
2022/10/31 05:36:35;;;;;;;3.28;0.90;;;0.90;99.90;;;;;;4781828;30;20063;-81
2022/10/31 05:39:12;;;;;;;4.00;0.90;;;0.90;99.90;;;;;;4766705;30;20178;-82
2022/10/31 05:41:49;;;;;;;1.88;0.90;;;0.90;99.90;;;;;;4782624;29;20147;-82
2022/10/31 05:44:23;;;;;;;6.07;0.95;;;0.90;99.90;;;;;;4795603;29;20399;-85
2022/10/31 05:47:10;;;;;;;6.53;1.73;;;0.90;99.90;;;;;;4790303;29;20055;-83
2022/10/31 05:50:11;;;;;;;6.57;0.93;;;1.00;99.90;;;;;;4775376;30;20060;-83
2022/10/31 05:52:56;;;;;;;10.00;2.28;;;1.00;99.90;;;;;;4776194;29;20047;-88
2022/10/31 05:55:33;;;;;;;5.55;1.02;;;1.00;99.90;;;;;;4814513;29;20676;-87
2022/10/31 05:58:22;;;;;;;3.42;1.40;;;1.10;99.90;;;;;;4775956;30;20147;-88
2022/10/31 06:00:55;;;;;;;3.65;1.08;;;1.10;99.90;;;;;;4806678;29;20135;-88
2022/10/31 06:03:25;;;;;;;2.30;1.20;;;1.10;99.90;;;;;;4793529;29;20080;-89
2022/10/31 06:05:56;;;;;;;8.85;1.38;;;1.10;99.90;;;;;;4811849;29;20147;-84
2022/10/31 06:11:25;;;;;;;4.72;1.48;;;1.20;99.90;;;;;;4781057;29;20447;-81
2022/10/31 06:14:10;;;;;;;8.50;2.13;;;1.20;99.90;;;;;;4766072;30;20315;-81
2022/10/31 06:16:59;;;;;;;4.38;2.10;;;1.30;99.90;;;;;;4768806;30;20066;-80
2022/10/31 06:20:20;;;;;;;7.40;1.45;;;1.30;99.90;;;;;;4754085;30;20070;-79
2022/10/31 06:23:44;;;;;;;4.75;1.45;;;1.30;99.90;;;;;;4768489;30;20089;-82
2022/10/31 06:26:54;;;;;;;4.97;1.05;;;1.40;99.90;;;;;;4778153;30;20059;-88
2022/10/31 06:29:30;;;;;;;7.72;2.53;;;1.40;99.90;;;;;;4763726;30;20067;-78
2022/10/31 06:32:08;;;;;;;5.72;1.25;;;1.50;99.90;;;;;;4767287;30;20052;-89
2022/10/31 06:34:49;;;;;;;4.57;1.05;;;1.50;99.90;;;;;;4764263;30;20055;-85
2022/10/31 06:37:17;;;;;;;3.53;1.08;;;1.60;99.90;;;;;;4796425;29;20468;-79
2022/10/31 06:39:55;;;;;;;6.60;0.82;;;1.60;99.90;;;;;;4760591;30;20058;-84
2022/10/31 06:42:23;;;;;;;5.35;1.40;;;1.60;99.90;;;;;;4759976;30;20066;-79
2022/10/31 06:44:53;;;;;;;3.15;1.15;;;1.60;99.90;;;;;;4760842;30;20056;-85
2022/10/31 06:47:51;;;;;;;8.00;1.95;;;1.60;99.90;;;;;;4764092;30;20047;-81
2022/10/31 06:50:28;;;;;;;3.58;1.25;;;1.70;99.90;;;;;;4767003;30;20090;-84
2022/10/31 06:53:04;;;;;;;7.75;1.40;;;1.70;99.90;;;;;;4788710;29;20056;-85
2022/10/31 06:56:14;;;;;;;6.55;1.52;;;1.80;99.90;;;;;;4755581;30;20064;-82
2022/10/31 07:03:25;;;;;;;4.40;1.38;;;1.90;99.90;;;;;;4792364;29;20074;-85
2022/10/31 07:06:30;;;;;;;4.82;1.55;;;1.90;99.90;;;;;;4796783;29;20348;-89
2022/10/31 07:09:18;;;;;;;6.63;2.13;;;2.00;99.90;;;;;;4751431;30;20254;-85
2022/10/31 07:11:53;;;;;;;6.70;2.38;;;2.00;99.90;;;;;;4774524;29;20106;-80
2022/10/31 07:14:27;;;;;;;3.47;1.42;;;2.10;99.90;;;;;;4790727;29;20056;-81
2022/10/31 07:16:55;;;;;;;8.88;1.33;;;2.20;99.90;;;;;;4775478;30;20061;-85
2022/10/31 07:19:37;;;;;;;6.88;1.20;;;2.30;99.90;;;;;;4773947;30;20147;-83
2022/10/31 07:22:09;;;;;;;7.90;1.80;;;2.40;99.90;;;;;;4759845;30;20048;-87
2022/10/31 07:24:41;;;;;;;15.90;1.35;;;2.50;99.90;;;;;;4800044;29;20112;-86
2022/10/31 07:27:38;;;;;;;5.20;1.60;;;2.60;99.90;;;;;;4759906;30;20291;-86
2022/10/31 07:30:12;;;;;;;6.55;1.63;;;2.80;99.90;;;;;;4766320;30;20123;-84
2022/10/31 07:32:43;;;;;;;4.75;1.30;;;2.90;99.90;;;;;;4738615;29;20066;-88
2022/10/31 07:35:13;;;;;;;8.38;1.35;;;3.00;99.90;;;;;;4758156;30;20531;-88
2022/10/31 07:37:47;;;;;;;4.60;1.50;;;3.10;99.90;;;;;;4769332;30;20054;-84
2022/10/31 07:40:20;;;;;;;2.40;0.85;;;3.20;99.90;;;;;;4760073;29;20109;-82
2022/10/31 07:42:52;;;;;;;2.20;1.08;;;3.30;99.90;;;;;;4778336;29;20133;-81
2022/10/31 07:45:38;;;;;;;3.30;0.90;;;3.50;99.90;;;;;;4760055;30;20059;-77
2022/10/31 07:48:26;;;;;;;8.15;1.77;;;3.70;99.90;;;;;;4764860;30;20075;-79
2022/10/31 07:51:26;;;;;;;4.85;1.05;;;4.60;99.90;;;;;;4757132;30;20064;-80
2022/10/31 07:54:21;;;;;;;4.15;1.15;;;5.50;99.90;;;;;;4761414;30;20056;-82
2022/10/31 07:56:55;;;;;;;5.18;1.40;;;6.50;99.90;;;;;;4767542;30;20586;-81
2022/10/31 07:59:25;;;;;;;4.00;1.40;;;7.30;99.90;;;;;;4788696;29;20055;-79
2022/10/31 08:01:54;;;;;;;9.52;1.75;;;8.40;99.90;;;;;;4794244;29;20060;-77
2022/10/31 08:04:31;;;;;;;8.05;1.77;;;9.40;99.90;;;;;;4761965;30;20054;-79
2022/10/31 08:07:19;;;;;;;7.32;1.45;;;10.80;99.90;;;;;;4754104;30;20078;-81
2022/10/31 08:09:54;;;;;;;9.38;1.80;;;12.50;97.80;;;;;;4785462;29;20070;-76
2022/10/31 08:12:25;;;;;;;2.75;1.40;;;13.40;88.90;;;;;;4785552;29;20582;-76
2022/10/31 08:14:54;;;;;;;3.85;1.55;;;13.60;81.10;;;;;;4798209;29;20162;-75
2022/10/31 08:17:21;;;;;;;4.00;1.75;;;13.10;77.50;;;;;;4752531;30;20043;-76
2022/10/31 08:19:55;;;;;;;3.25;1.77;;;13.30;81.10;;;;;;4756171;30;20060;-76
2022/10/31 08:22:30;;;;;;;7.53;1.67;;;13.20;75.90;;;;;;4801454;29;20114;-81
2022/10/31 08:24:57;;;;;;;6.93;1.65;;;12.30;77.90;;;;;;4772277;29;20496;-81
2022/10/31 08:27:24;;;;;;;4.95;1.50;;;12.10;81.70;;;;;;4779626;29;20170;-81
2022/10/31 08:29:53;;;;;;;2.92;1.25;;;12.40;79.40;;;;;;4791692;29;20480;-79
2022/10/31 08:32:23;;;;;;;4.88;1.60;;;12.90;79.80;;;;;;4780671;29;20146;-79
2022/10/31 08:34:53;;;;;;;4.72;1.40;;;14.00;77.30;;;;;;4794032;29;20132;-80
2022/10/31 08:37:42;;;;;;;5.35;1.20;;;15.10;71.70;;;;;;4730699;30;20047;-82
2022/10/31 08:40:12;;;;;;;17.38;1.55;;;15.60;69.40;;;;;;4789419;29;20142;-81
2022/10/31 08:42:41;;;;;;;7.22;1.58;;;16.10;67.40;;;;;;4796461;29;20052;-78
2022/10/31 08:45:08;;;;;;;8.00;1.35;;;16.40;65.70;;;;;;4771299;29;20052;-78
2022/10/31 08:47:37;;;;;;;8.75;1.75;;;16.50;65.10;;;;;;4776390;30;20063;-80
2022/10/31 08:50:06;;;;;;;5.63;1.60;;;16.30;62.80;;;;;;4784480;29;20650;-79
2022/10/31 08:52:33;;;;;;;4.97;1.30;;;15.60;63.40;;;;;;4766078;30;20043;-74
2022/10/31 08:55:07;;;;;;;6.07;1.10;;;15.10;64.80;;;;;;4743004;30;20150;-75
2022/10/31 08:57:47;;;;;;;7.75;1.73;;;15.10;64.90;;;;;;4793877;29;20060;-77
2022/10/31 09:00:15;;;;;;;8.07;5.22;;;15.20;64.50;;;;;;4782581;29;20056;-79
2022/10/31 09:03:04;;;;;;;3.15;1.98;;;15.20;64.40;;;;;;4755077;30;20070;-78
2022/10/31 09:05:34;;;;;;;6.00;2.42;;;14.70;65.20;;;;;;4778684;29;20069;-74
2022/10/31 09:08:03;;;;;;;6.97;1.80;;;14.30;66.30;;;;;;4777290;29;20055;-73
2022/10/31 09:10:34;;;;;;;10.57;1.70;;;14.70;66.70;;;;;;4760936;30;20417;-74
2022/10/31 09:13:07;;;;;;;8.00;2.13;;;15.10;65.20;;;;;;4757549;30;20063;-73
2022/10/31 09:16:09;;;;;;;2.15;1.52;;;15.30;64.90;;;;;;4691445;30;20058;-74
2022/10/31 09:18:36;;;;;;;2.40;1.45;;;15.60;63.90;;;;;;4743342;30;20067;-73
2022/10/31 09:21:04;;;;;;;6.10;1.63;;;15.30;62.70;;;;;;4780683;29;20404;-74
2022/10/31 09:23:31;;;;;;;1.90;1.20;;;15.10;63.20;;;;;;4771227;29;20059;-73
2022/10/31 09:26:03;;;;;;;2.72;1.20;;;15.00;64.30;;;;;;4752136;30;20051;-78
2022/10/31 09:28:57;;;;;;;6.13;1.48;;;15.10;63.30;;;;;;4768961;30;20082;-72
2022/10/31 09:31:25;;;;;;;5.13;1.80;;;14.80;63.30;;;;;;4767715;30;20433;-73
2022/10/31 09:34:15;;;;;;;7.22;2.13;;;14.20;63.80;;;;;;4754611;30;20048;-78
2022/10/31 09:37:00;;;;;;;2.33;1.23;;;13.60;65.10;;;;;;4753112;30;20067;-73
2022/10/31 09:39:28;;;;;;;6.30;1.58;;;13.30;65.60;;;;;;4754291;30;20059;-75
2022/10/31 09:42:21;;;;;;;6.32;1.83;;;12.90;67.00;;;;;;4772710;30;20110;-75
2022/10/31 09:44:57;;;;;;;5.47;1.55;;;12.30;67.90;;;;;;4768807;30;20056;-74
2022/10/31 09:47:41;;;;;;;9.95;1.73;;;12.00;69.80;;;;;;4785072;29;20506;-77
2022/10/31 09:50:35;;;;;;;11.50;1.70;;;12.40;69.90;;;;;;4767050;30;20052;-77
2022/10/31 09:53:31;;;;;;;8.65;1.55;;;13.00;68.10;;;;;;4799502;29;20059;-79
2022/10/31 09:56:00;;;;;;;2.17;1.55;;;13.50;65.80;;;;;;4766014;30;20051;-80
2022/10/31 09:58:31;;;;;;;6.60;1.55;;;13.90;65.40;;;;;;4785280;29;20138;-79
2022/10/31 10:01:02;;;;;;;5.18;1.42;;;14.10;65.10;;;;;;4747897;30;20510;-82
2022/10/31 10:03:37;;;;;;;2.63;1.10;;;14.50;63.30;;;;;;4764135;30;20062;-77
2022/10/31 10:06:27;;;;;;;3.95;1.27;;;14.90;62.50;;;;;;4764319;30;20422;-79
2022/10/31 10:09:13;;;;;;;2.10;1.33;;;15.50;61.00;;;;;;4760083;30;20089;-78
2022/10/31 10:12:19;;;;;;;4.45;1.30;;;15.80;60.00;;;;;;4766831;29;20134;-83
2022/10/31 10:15:05;;;;;;;4.70;1.30;;;15.90;59.60;;;;;;4763366;30;20064;-81
2022/10/31 10:17:42;;;;;;;3.00;1.30;;;16.00;59.10;;;;;;4757813;30;20798;-82
2022/10/31 10:20:23;;;;;;;3.50;1.25;;;16.20;59.10;;;;;;4762476;30;20263;-83
2022/10/31 10:22:57;;;;;;;2.10;1.15;;;16.50;58.20;;;;;;4768593;30;20098;-81
2022/10/31 10:25:34;;;;;;;4.13;0.90;;;16.40;57.50;;;;;;4765283;30;20075;-86
2022/10/31 10:28:09;;;;;;;5.72;1.55;;;16.40;58.00;;;;;;4770818;30;20052;-83
2022/10/31 10:30:42;;;;;;;2.50;0.70;;;16.20;58.40;;;;;;4756888;30;20071;-83
2022/10/31 10:33:16;;;;;;;2.53;1.25;;;16.00;57.40;;;;;;4772121;30;20138;-86
2022/10/31 10:35:48;;;;;;;2.50;1.50;;;15.90;57.90;;;;;;4766135;30;20059;-83
2022/10/31 10:38:24;;;;;;;4.78;1.83;;;15.60;58.70;;;;;;4756789;30;20082;-82
2022/10/31 10:40:54;;;;;;;4.63;1.52;;;15.70;58.80;;;;;;4760497;30;20066;-78
2022/10/31 10:43:24;;;;;;;3.65;1.33;;;15.50;58.70;;;;;;4763110;30;20048;-78
2022/10/31 10:48:57;;;;;;;4.85;2.10;;;15.50;58.90;;;;;;4766996;30;20488;-74
2022/10/31 10:51:28;;;;;;;3.25;1.55;;;15.70;58.70;;;;;;4746946;30;20055;-71
2022/10/31 10:54:15;;;;;;;3.40;1.20;;;15.90;58.60;;;;;;4759151;30;20070;-74
2022/10/31 10:57:00;;;;;;;5.18;1.55;;;16.10;57.80;;;;;;4785076;29;20054;-74
2022/10/31 10:59:29;;;;;;;2.78;1.05;;;15.40;58.30;;;;;;4759439;30;20052;-76
2022/10/31 11:01:59;;;;;;;4.40;1.63;;;15.00;59.30;;;;;;4765127;30;20414;-81
2022/10/31 11:04:31;;;;;;;3.95;1.55;;;15.30;59.10;;;;;;4768240;30;20048;-81
2022/10/31 11:07:05;;;;;;;8.00;1.50;;;15.50;58.50;;;;;;4771282;30;20063;-77
2022/10/31 11:09:33;;;;;;;3.58;1.48;;;15.50;58.30;;;;;;4747658;30;20044;-74
2022/10/31 11:12:06;;;;;;;1.48;1.08;;;15.20;58.70;;;;;;4761703;30;20506;-82
2022/10/31 11:14:44;;;;;;;2.35;1.35;;;15.20;58.40;;;;;;4765312;30;20478;-76
2022/10/31 11:17:23;;;;;;;2.22;1.40;;;15.70;57.90;;;;;;4761018;30;20080;-74
2022/10/31 11:20:02;;;;;;;2.90;1.15;;;15.90;57.40;;;;;;4764816;30;20150;-75
2022/10/31 11:22:31;;;;;;;6.85;1.10;;;16.10;56.90;;;;;;4775079;30;20051;-75
2022/10/31 11:24:58;;;;;;;3.45;0.80;;;16.30;56.70;;;;;;4768863;30;20055;-73
2022/10/31 11:27:27;;;;;;;2.13;0.85;;;16.80;56.70;;;;;;4773500;30;20428;-74
2022/10/31 11:30:04;;;;;;;6.15;1.38;;;17.30;55.40;;;;;;4765768;30;20163;-74
2022/10/31 11:32:33;;;;;;;7.47;1.48;;;17.70;54.00;;;;;;4768266;30;20051;-73
2022/10/31 11:35:02;;;;;;;7.20;1.67;;;17.60;54.30;;;;;;4769351;30;20077;-74
2022/10/31 11:37:35;;;;;;;4.22;1.50;;;17.40;54.00;;;;;;4769561;30;20067;-73
2022/10/31 11:40:06;;;;;;;3.25;0.90;;;17.60;53.70;;;;;;4769601;29;20099;-81
2022/10/31 11:42:40;;;;;;;7.43;1.20;;;18.00;53.20;;;;;;4763111;30;20467;-79
2022/10/31 11:45:15;;;;;;;4.97;1.27;;;18.20;52.60;;;;;;4764768;30;20064;-80
2022/10/31 11:47:47;;;;;;;4.40;1.23;;;18.20;51.90;;;;;;4762174;30;20135;-73
2022/10/31 11:50:22;;;;;;;2.70;0.93;;;18.00;52.40;;;;;;4771808;30;20166;-73
2022/10/31 11:52:51;;;;;;;3.88;1.30;;;18.40;52.10;;;;;;4772969;30;20497;-74
2022/10/31 11:55:33;;;;;;;3.33;1.30;;;18.50;51.60;;;;;;4795443;29;20133;-80
2022/10/31 11:58:01;;;;;;;2.93;1.50;;;18.20;51.50;;;;;;4767622;30;20075;-79
2022/10/31 12:00:30;;;;;;;4.25;1.42;;;17.60;52.50;;;;;;4805586;29;20109;-81
2022/10/31 12:03:34;;;;;;;2.53;1.08;;;17.00;53.00;;;;;;4802071;29;20509;-74
2022/10/31 12:06:06;;;;;;;4.07;1.58;;;16.90;53.40;;;;;;4765038;30;20440;-75
2022/10/31 12:08:36;;;;;;;1.98;0.98;;;17.40;53.10;;;;;;4804372;29;20610;-77
2022/10/31 12:11:14;;;;;;;5.13;1.60;;;17.50;52.60;;;;;;4774552;30;20150;-74
2022/10/31 12:13:55;;;;;;;6.47;1.38;;;18.00;52.30;;;;;;4760659;30;20516;-79
2022/10/31 12:16:29;;;;;;;5.97;1.20;;;18.30;51.40;;;;;;4773960;30;20051;-80
2022/10/31 12:19:09;;;;;;;3.38;1.20;;;17.80;51.60;;;;;;4772989;30;20056;-78
2022/10/31 12:21:51;;;;;;;7.00;1.55;;;17.20;52.90;;;;;;4762581;30;20087;-78
2022/10/31 12:24:28;;;;;;;7.43;1.30;;;16.30;54.20;;;;;;4776682;29;20430;-79
2022/10/31 12:27:04;;;;;;;2.78;1.80;;;15.70;55.00;;;;;;4770778;30;20052;-81
2022/10/31 12:29:54;;;;;;;6.20;1.40;;;15.40;55.90;;;;;;4776215;30;20116;-81
2022/10/31 12:32:35;;;;;;;4.95;1.63;;;15.10;56.10;;;;;;4765964;30;20205;-80
2022/10/31 12:35:22;;;;;;;5.75;1.55;;;15.20;56.00;;;;;;4772318;30;20056;-81
2022/10/31 12:38:05;;;;;;;6.22;1.73;;;15.00;56.00;;;;;;4780228;30;20084;-81
2022/10/31 12:40:50;;;;;;;7.75;1.75;;;14.90;56.50;;;;;;4775117;29;20051;-79
2022/10/31 12:43:35;;;;;;;3.75;1.85;;;14.60;56.30;;;;;;4769440;30;20507;-79
2022/10/31 12:46:04;;;;;;;4.13;1.40;;;13.50;58.80;;;;;;4794139;29;20068;-81
2022/10/31 12:48:53;;;;;;;3.60;1.13;;;12.40;59.60;;;;;;4783990;29;20056;-82
2022/10/31 12:51:32;;;;;;;6.53;1.30;;;11.30;62.80;;;;;;4764458;30;20074;-79
2022/10/31 12:54:18;;;;;;;3.17;1.27;;;10.30;65.40;;;;;;4778387;29;20120;-80
2022/10/31 12:56:57;;;;;;;7.95;1.90;;;9.40;67.80;;;;;;4798792;29;20109;-83
2022/10/31 12:59:30;;;;;;;7.35;1.50;;;8.80;70.50;;;;;;4774931;30;20178;-83
2022/10/31 13:02:02;;;;;;;4.68;1.73;;;8.40;71.90;;;;;;4776080;29;20062;-79
2022/10/31 13:04:40;;;;;;;7.32;1.13;;;8.00;72.30;;;;;;4774812;30;20044;-80
2022/10/31 13:07:14;;;;;;;4.18;1.30;;;7.80;73.80;;;;;;4783895;29;20406;-81
2022/10/31 13:09:47;;;;;;;2.70;1.25;;;7.50;74.50;;;;;;4777535;30;20093;-82
2022/10/31 13:12:19;;;;;;;5.18;1.30;;;7.40;75.00;;;;;;4775269;30;20063;-82
2022/10/31 13:14:50;;;;;;;8.88;1.20;;;7.10;75.70;;;;;;4775748;30;20139;-80
2022/10/31 13:17:25;;;;;;;4.03;1.40;;;6.90;76.20;;;;;;4762410;30;20154;-79
2022/10/31 13:19:56;;;;;;;6.30;1.65;;;6.80;77.20;;;;;;4774145;30;20063;-81
2022/10/31 13:22:30;;;;;;;7.03;1.60;;;6.70;78.40;;;;;;4770633;30;20146;-80
2022/10/31 13:25:03;;;;;;;9.13;1.25;;;6.60;78.00;;;;;;4805240;29;20059;-80
2022/10/31 13:27:34;;;;;;;2.15;1.13;;;6.50;78.20;;;;;;4769738;30;20066;-81
2022/10/31 13:30:04;;;;;;;3.17;1.20;;;6.40;79.10;;;;;;4778227;29;20526;-81
2022/10/31 13:32:41;;;;;;;2.15;1.13;;;6.30;79.80;;;;;;4777264;30;20044;-80
2022/10/31 13:35:17;;;;;;;6.43;1.00;;;6.20;79.80;;;;;;4810623;29;20521;-83
2022/10/31 13:37:53;;;;;;;5.55;1.35;;;6.20;80.40;;;;;;4772457;30;20082;-81
2022/10/31 13:40:34;;;;;;;5.88;1.60;;;6.20;81.00;;;;;;4779002;30;20085;-81
2022/10/31 13:43:07;;;;;;;4.82;1.23;;;6.10;81.40;;;;;;4771830;29;20138;-80
2022/10/31 13:45:35;;;;;;;7.85;1.73;;;6.10;82.90;;;;;;4772367;30;20410;-80